createdAt,value
2022-10-01T00:00:04.613Z,13.63
2022-10-01T00:00:49.382Z,13.64
2022-10-01T00:01:38.558Z,13.64
2022-10-01T00:02:12.124Z,13.64
2022-10-01T00:02:45.537Z,13.65
2022-10-01T00:03:19.925Z,13.64
2022-10-01T00:03:53.623Z,13.65
2022-10-01T00:04:27.995Z,13.65
2022-10-01T00:05:01.685Z,13.65
2022-10-01T00:05:34.884Z,13.65
2022-10-01T00:06:12.355Z,13.65
2022-10-01T00:06:45.641Z,13.64
2022-10-01T00:07:18.930Z,13.63
2022-10-01T00:07:52.253Z,13.63
2022-10-01T00:08:25.670Z,13.64
2022-10-01T00:08:59.134Z,13.64
2022-10-01T00:09:32.705Z,13.65
2022-10-01T00:10:07.048Z,13.65
2022-10-01T00:10:44.473Z,13.66
2022-10-01T00:11:26.401Z,13.66
2022-10-01T00:12:00.211Z,13.66
2022-10-01T00:12:35.091Z,13.66
2022-10-01T00:13:08.686Z,13.65
2022-10-01T00:13:46.543Z,13.67
2022-10-01T00:14:20.290Z,13.67
2022-10-01T00:14:53.463Z,13.67
2022-10-01T00:15:26.872Z,13.66
2022-10-01T00:16:00.710Z,13.65
2022-10-01T00:16:34.003Z,13.65
2022-10-01T00:17:07.341Z,13.64
2022-10-01T00:17:41.227Z,13.64
2022-10-01T00:18:14.896Z,13.64
2022-10-01T00:18:49.613Z,13.63
2022-10-01T00:19:23.103Z,13.63
2022-10-01T00:19:56.325Z,13.63
2022-10-01T00:20:29.741Z,13.64
2022-10-01T00:21:07.518Z,13.64
2022-10-01T00:21:40.921Z,13.64
2022-10-01T00:22:14.070Z,13.63
2022-10-01T00:22:47.671Z,13.64
2022-10-01T00:23:20.873Z,13.64
2022-10-01T00:23:59.814Z,13.64
2022-10-01T00:24:33.209Z,13.63
2022-10-01T00:25:07.345Z,13.63
2022-10-01T00:25:41.653Z,13.63
2022-10-01T00:26:21.213Z,13.63
2022-10-01T00:26:54.388Z,13.62
2022-10-01T00:27:28.039Z,13.61
2022-10-01T00:28:01.526Z,13.61
2022-10-01T00:28:34.831Z,13.61
2022-10-01T00:29:13.146Z,13.61
2022-10-01T00:29:46.290Z,13.61
2022-10-01T00:30:19.574Z,13.60
2022-10-01T00:30:52.843Z,13.61
2022-10-01T00:31:27.428Z,13.61
2022-10-01T00:32:00.952Z,13.62
2022-10-01T00:32:34.155Z,13.62
2022-10-01T00:33:07.454Z,13.62
2022-10-01T00:33:40.926Z,13.63
2022-10-01T00:34:16.109Z,13.63
2022-10-01T00:34:49.462Z,13.64
2022-10-01T00:35:23.604Z,13.64
2022-10-01T00:35:57.397Z,13.65
2022-10-01T00:36:32.117Z,13.65
2022-10-01T00:37:05.343Z,13.66
2022-10-01T00:37:39.243Z,13.65
2022-10-01T00:38:14.346Z,13.65
2022-10-01T00:38:48.653Z,13.64
2022-10-01T00:39:22.505Z,13.64
2022-10-01T00:39:55.791Z,13.63
2022-10-01T00:40:29.212Z,13.63
2022-10-01T00:41:03.900Z,13.62
2022-10-01T00:41:37.569Z,13.61
2022-10-01T00:42:27.022Z,13.62
2022-10-01T00:43:00.266Z,13.61
2022-10-01T00:43:37.053Z,13.61
2022-10-01T00:44:32.469Z,13.61
2022-10-01T00:45:05.981Z,13.61
2022-10-01T00:45:39.848Z,13.61
2022-10-01T00:46:28.147Z,13.61
2022-10-01T00:47:11.716Z,13.61
2022-10-01T00:48:00.705Z,13.61
2022-10-01T00:48:44.742Z,13.61
2022-10-01T00:49:24.524Z,13.59
2022-10-01T00:50:16.750Z,13.59
2022-10-01T00:50:52.123Z,13.59
2022-10-01T00:51:35.858Z,13.58
2022-10-01T00:52:14.129Z,13.58
2022-10-01T00:52:52.449Z,13.57
2022-10-01T00:53:26.746Z,13.56
2022-10-01T00:54:10.756Z,13.56
2022-10-01T00:55:05.013Z,13.56
2022-10-01T00:55:43.169Z,13.54
2022-10-01T00:56:16.380Z,13.53
2022-10-01T00:56:55.751Z,13.52
2022-10-01T00:57:29.905Z,13.53
2022-10-01T00:58:05.277Z,13.53
2022-10-01T00:58:39.824Z,13.53
2022-10-01T00:59:16.450Z,13.53
2022-10-01T00:59:52.360Z,13.54
2022-10-01T01:00:25.772Z,13.54
2022-10-01T01:00:59.379Z,13.56
2022-10-01T01:01:36.926Z,13.57
2022-10-01T01:02:11.536Z,13.57
2022-10-01T01:02:45.017Z,13.57
2022-10-01T01:03:18.681Z,13.58
2022-10-01T01:03:52.180Z,13.59
2022-10-01T01:04:25.533Z,13.59
2022-10-01T01:04:59.513Z,13.59
2022-10-01T01:05:33.080Z,13.59
2022-10-01T01:06:08.431Z,13.58
2022-10-01T01:06:41.599Z,13.58
2022-10-01T01:07:16.252Z,13.57
2022-10-01T01:07:53.021Z,13.57
2022-10-01T01:08:26.284Z,13.58
2022-10-01T01:08:59.692Z,13.59
2022-10-01T01:09:44.971Z,13.59
2022-10-01T01:10:28.387Z,13.59
2022-10-01T01:11:35.633Z,13.59
2022-10-01T01:12:21.308Z,13.58
2022-10-01T01:12:54.424Z,13.56
2022-10-01T01:13:37.662Z,13.56
2022-10-01T01:14:20.424Z,13.56
2022-10-01T01:15:14.434Z,13.56
2022-10-01T01:16:12.953Z,13.56
2022-10-01T01:17:03.586Z,13.53
2022-10-01T01:18:03.873Z,13.53
2022-10-01T01:18:48.173Z,13.51
2022-10-01T01:19:41.566Z,13.50
2022-10-01T01:20:26.783Z,13.50
2022-10-01T01:21:09.259Z,13.49
2022-10-01T01:21:45.956Z,13.48
2022-10-01T01:22:24.742Z,13.48
2022-10-01T01:23:08.874Z,13.47
2022-10-01T01:24:04.198Z,13.47
2022-10-01T01:24:49.016Z,13.46
2022-10-01T01:25:38.738Z,13.46
2022-10-01T01:26:19.275Z,13.46
2022-10-01T01:27:10.851Z,13.46
2022-10-01T01:27:48.921Z,13.45
2022-10-01T01:28:31.886Z,13.44
2022-10-01T01:29:28.652Z,13.44
2022-10-01T01:30:11.948Z,13.44
2022-10-01T01:30:49.685Z,13.43
2022-10-01T01:31:30.698Z,13.42
2022-10-01T01:32:14.853Z,13.42
2022-10-01T01:32:59.527Z,13.43
2022-10-01T01:33:37.522Z,13.43
2022-10-01T01:34:14.446Z,13.43
2022-10-01T01:34:50.609Z,13.44
2022-10-01T01:35:42.500Z,13.44
2022-10-01T01:36:19.695Z,13.45
2022-10-01T01:36:59.902Z,13.45
2022-10-01T01:37:40.483Z,13.45
2022-10-01T01:38:19.133Z,13.45
2022-10-01T01:38:58.840Z,13.45
2022-10-01T01:39:35.176Z,13.45
2022-10-01T01:40:12.524Z,13.46
2022-10-01T01:40:51.871Z,13.46
2022-10-01T01:41:29.606Z,13.47
2022-10-01T01:42:09.775Z,13.47
2022-10-01T01:42:45.071Z,13.47
2022-10-01T01:43:24.573Z,13.47
2022-10-01T01:44:02.458Z,13.47
2022-10-01T01:44:40.103Z,13.47
2022-10-01T01:45:20.394Z,13.47
2022-10-01T01:45:56.855Z,13.47
2022-10-01T01:46:34.402Z,13.46
2022-10-01T01:47:10.836Z,13.46
2022-10-01T01:47:46.034Z,13.45
2022-10-01T01:48:19.279Z,13.46
2022-10-01T01:48:53.601Z,13.47
2022-10-01T01:49:27.075Z,13.47
2022-10-01T01:50:06.360Z,13.48
2022-10-01T01:51:08.679Z,13.48
2022-10-01T01:51:53.416Z,13.48
2022-10-01T01:52:26.762Z,13.48
2022-10-01T01:53:00.289Z,13.48
2022-10-01T01:53:34.808Z,13.49
2022-10-01T01:54:08.909Z,13.49
2022-10-01T01:54:50.002Z,13.49
2022-10-01T01:55:25.596Z,13.48
2022-10-01T01:56:00.596Z,13.48
2022-10-01T01:56:34.648Z,13.47
2022-10-01T01:57:09.140Z,13.48
2022-10-01T01:57:44.548Z,13.48
2022-10-01T01:58:19.127Z,13.48
2022-10-01T01:58:54.221Z,13.48
2022-10-01T01:59:28.101Z,13.48
2022-10-01T02:00:02.692Z,13.48
2022-10-01T02:00:36.895Z,13.48
2022-10-01T02:01:34.781Z,13.48
2022-10-01T02:02:13.725Z,13.48
2022-10-01T02:02:52.121Z,13.47
2022-10-01T02:03:29.539Z,13.47
2022-10-01T02:04:07.133Z,13.47
2022-10-01T02:04:57.825Z,13.47
2022-10-01T02:05:55.309Z,13.47
2022-10-01T02:06:48.808Z,13.45
2022-10-01T02:07:37.649Z,13.44
2022-10-01T02:08:41.617Z,13.43
2022-10-01T02:09:48.983Z,13.41
2022-10-01T02:10:34.542Z,13.39
2022-10-01T02:11:22.039Z,13.38
2022-10-01T02:12:09.671Z,13.37
2022-10-01T02:13:01.887Z,13.35
2022-10-01T02:13:50.475Z,13.36
2022-10-01T02:14:43.899Z,13.35
2022-10-01T02:15:35.569Z,13.32
2022-10-01T02:16:27.894Z,13.30
2022-10-01T02:17:11.452Z,13.28
2022-10-01T02:17:54.056Z,13.28
2022-10-01T02:18:36.247Z,13.28
2022-10-01T02:19:28.270Z,13.27
2022-10-01T02:20:14.365Z,13.28
2022-10-01T02:21:04.664Z,13.28
2022-10-01T02:21:42.475Z,13.28
2022-10-01T02:22:23.960Z,13.27
2022-10-01T02:23:10.359Z,13.28
2022-10-01T02:23:59.845Z,13.28
2022-10-01T02:24:41.734Z,13.29
2022-10-01T02:25:19.504Z,13.29
2022-10-01T02:25:58.705Z,13.29
2022-10-01T02:26:35.475Z,13.30
2022-10-01T02:27:30.715Z,13.29
2022-10-01T02:28:33.180Z,13.30
2022-10-01T02:29:10.210Z,13.28
2022-10-01T02:29:45.627Z,13.27
2022-10-01T02:30:19.460Z,13.28
2022-10-01T02:30:56.230Z,13.29
2022-10-01T02:31:32.689Z,13.30
2022-10-01T02:32:07.279Z,13.31
2022-10-01T02:32:44.877Z,13.31
2022-10-01T02:33:24.753Z,13.32
2022-10-01T02:34:00.345Z,13.32
2022-10-01T02:34:34.290Z,13.32
2022-10-01T02:35:11.147Z,13.33
2022-10-01T02:35:46.844Z,13.34
2022-10-01T02:36:23.211Z,13.34
2022-10-01T02:36:59.706Z,13.34
2022-10-01T02:37:34.711Z,13.35
2022-10-01T02:38:11.115Z,13.35
2022-10-01T02:38:46.742Z,13.36
2022-10-01T02:39:23.307Z,13.37
2022-10-01T02:39:58.921Z,13.37
2022-10-01T02:40:36.733Z,13.38
2022-10-01T02:41:12.952Z,13.38
2022-10-01T02:41:50.583Z,13.38
2022-10-01T02:42:27.837Z,13.38
2022-10-01T02:43:12.427Z,13.39
2022-10-01T02:43:57.483Z,13.38
2022-10-01T02:44:40.478Z,13.38
2022-10-01T02:45:18.484Z,13.37
2022-10-01T02:45:58.938Z,13.37
2022-10-01T02:47:10.963Z,13.37
2022-10-01T02:47:48.112Z,13.34
2022-10-01T02:48:21.743Z,13.32
2022-10-01T02:48:56.186Z,13.30
2022-10-01T02:49:31.035Z,13.30
2022-10-01T02:50:06.752Z,13.29
2022-10-01T02:50:53.267Z,13.29
2022-10-01T02:51:53.585Z,13.28
2022-10-01T02:52:29.702Z,13.27
2022-10-01T02:53:10.272Z,13.27
2022-10-01T02:53:53.379Z,13.27
2022-10-01T02:54:52.459Z,13.26
2022-10-01T02:55:31.127Z,13.26
2022-10-01T02:56:06.101Z,13.25
2022-10-01T02:56:59.658Z,13.26
2022-10-01T02:57:33.323Z,13.27
2022-10-01T02:58:08.049Z,13.26
2022-10-01T02:58:42.253Z,13.27
2022-10-01T02:59:15.382Z,13.27
2022-10-01T02:59:49.216Z,13.28
2022-10-01T03:00:23.096Z,13.28
2022-10-01T03:00:56.393Z,13.28
2022-10-01T03:01:30.137Z,13.29
2022-10-01T03:02:04.148Z,13.29
2022-10-01T03:02:37.795Z,13.30
2022-10-01T03:03:11.197Z,13.30
2022-10-01T03:03:44.451Z,13.30
2022-10-01T03:04:19.462Z,13.31
2022-10-01T03:04:52.612Z,13.31
2022-10-01T03:05:26.056Z,13.31
2022-10-01T03:05:59.303Z,13.32
2022-10-01T03:06:35.349Z,13.33
2022-10-01T03:07:08.744Z,13.33
2022-10-01T03:07:42.270Z,13.33
2022-10-01T03:08:15.520Z,13.34
2022-10-01T03:08:48.863Z,13.33
2022-10-01T03:09:22.082Z,13.32
2022-10-01T03:09:55.316Z,13.31
2022-10-01T03:10:28.846Z,13.31
2022-10-01T03:11:02.389Z,13.31
2022-10-01T03:11:36.048Z,13.32
2022-10-01T03:12:10.865Z,13.32
2022-10-01T03:12:48.248Z,13.33
2022-10-01T03:13:23.743Z,13.34
2022-10-01T03:13:57.425Z,13.34
2022-10-01T03:14:32.567Z,13.34
2022-10-01T03:15:07.063Z,13.35
2022-10-01T03:15:40.220Z,13.36
2022-10-01T03:16:13.672Z,13.37
2022-10-01T03:16:46.789Z,13.38
2022-10-01T03:17:20.629Z,13.38
2022-10-01T03:17:54.208Z,13.38
2022-10-01T03:18:27.440Z,13.39
2022-10-01T03:19:00.588Z,13.39
2022-10-01T03:19:33.955Z,13.39
2022-10-01T03:20:07.897Z,13.38
2022-10-01T03:20:41.003Z,13.38
2022-10-01T03:21:14.356Z,13.38
2022-10-01T03:21:48.126Z,13.38
2022-10-01T03:22:25.536Z,13.38
2022-10-01T03:22:58.781Z,13.38
2022-10-01T03:23:32.083Z,13.38
2022-10-01T03:24:05.337Z,13.38
2022-10-01T03:24:38.817Z,13.39
2022-10-01T03:25:11.965Z,13.39
2022-10-01T03:25:45.135Z,13.39
2022-10-01T03:26:18.348Z,13.39
2022-10-01T03:26:51.670Z,13.40
2022-10-01T03:27:24.976Z,13.40
2022-10-01T03:27:59.371Z,13.40
2022-10-01T03:28:32.540Z,13.40
2022-10-01T03:29:06.671Z,13.40
2022-10-01T03:29:39.757Z,13.40
2022-10-01T03:30:13.685Z,13.39
2022-10-01T03:30:46.934Z,13.39
2022-10-01T03:31:20.232Z,13.39
2022-10-01T03:31:54.300Z,13.39
2022-10-01T03:32:27.624Z,13.39
2022-10-01T03:33:01.086Z,13.39
2022-10-01T03:33:34.382Z,13.39
2022-10-01T03:34:07.534Z,13.39
2022-10-01T03:34:41.312Z,13.39
2022-10-01T03:35:14.571Z,13.39
2022-10-01T03:35:47.960Z,13.39
2022-10-01T03:36:21.208Z,13.39
2022-10-01T03:36:54.430Z,13.39
2022-10-01T03:37:27.599Z,13.39
2022-10-01T03:38:02.990Z,13.40
2022-10-01T03:38:36.048Z,13.41
2022-10-01T03:39:09.476Z,13.40
2022-10-01T03:39:43.035Z,13.41
2022-10-01T03:40:16.218Z,13.41
2022-10-01T03:40:49.891Z,13.42
2022-10-01T03:41:23.122Z,13.42
2022-10-01T03:41:56.596Z,13.41
2022-10-01T03:42:29.877Z,13.41
2022-10-01T03:43:02.982Z,13.41
2022-10-01T03:43:36.266Z,13.42
2022-10-01T03:44:09.518Z,13.42
2022-10-01T03:44:43.953Z,13.42
2022-10-01T03:45:17.174Z,13.42
2022-10-01T03:45:50.142Z,13.42
2022-10-01T03:46:23.480Z,13.42
2022-10-01T03:46:56.616Z,13.43
2022-10-01T03:47:29.994Z,13.43
2022-10-01T03:48:03.195Z,13.42
2022-10-01T03:48:36.207Z,13.43
2022-10-01T03:49:09.618Z,13.42
2022-10-01T03:49:42.660Z,13.41
2022-10-01T03:50:15.889Z,13.40
2022-10-01T03:51:00.002Z,13.39
2022-10-01T03:51:33.918Z,13.37
2022-10-01T03:52:07.282Z,13.35
2022-10-01T03:52:41.954Z,13.35
2022-10-01T03:53:15.282Z,13.34
2022-10-01T03:53:48.622Z,13.34
2022-10-01T03:54:22.024Z,13.34
2022-10-01T03:54:55.130Z,13.35
2022-10-01T03:55:28.651Z,13.35
2022-10-01T03:56:02.057Z,13.35
2022-10-01T03:56:36.239Z,13.35
2022-10-01T03:57:09.693Z,13.35
2022-10-01T03:57:42.778Z,13.35
2022-10-01T03:58:16.946Z,13.34
2022-10-01T03:58:50.523Z,13.33
2022-10-01T03:59:23.766Z,13.33
2022-10-01T03:59:56.957Z,13.31
2022-10-01T04:00:30.175Z,13.29
2022-10-01T04:01:03.486Z,13.27
2022-10-01T04:01:37.579Z,13.26
2022-10-01T04:02:11.396Z,13.24
2022-10-01T04:02:45.332Z,13.25
2022-10-01T04:03:19.107Z,13.24
2022-10-01T04:03:53.148Z,13.23
2022-10-01T04:04:26.231Z,13.23
2022-10-01T04:04:59.467Z,13.23
2022-10-01T04:05:32.810Z,13.23
2022-10-01T04:06:06.290Z,13.23
2022-10-01T04:06:39.517Z,13.23
2022-10-01T04:07:12.753Z,13.23
2022-10-01T04:07:46.559Z,13.24
2022-10-01T04:08:24.050Z,13.24
2022-10-01T04:08:58.134Z,13.24
2022-10-01T04:09:31.451Z,13.24
2022-10-01T04:10:04.937Z,13.24
2022-10-01T04:10:38.833Z,13.25
2022-10-01T04:11:12.174Z,13.26
2022-10-01T04:11:45.562Z,13.26
2022-10-01T04:12:19.186Z,13.26
2022-10-01T04:12:54.150Z,13.27
2022-10-01T04:13:28.282Z,13.27
2022-10-01T04:14:01.677Z,13.27
2022-10-01T04:14:34.824Z,13.27
2022-10-01T04:15:08.553Z,13.28
2022-10-01T04:15:42.029Z,13.28
2022-10-01T04:16:16.442Z,13.29
2022-10-01T04:16:52.784Z,13.29
2022-10-01T04:17:25.907Z,13.29
2022-10-01T04:18:00.066Z,13.29
2022-10-01T04:18:34.479Z,13.29
2022-10-01T04:19:07.653Z,13.29
2022-10-01T04:19:40.878Z,13.29
2022-10-01T04:20:14.452Z,13.30
2022-10-01T04:20:48.516Z,13.31
2022-10-01T04:21:21.722Z,13.32
2022-10-01T04:21:54.876Z,13.32
2022-10-01T04:22:28.068Z,13.33
2022-10-01T04:23:02.126Z,13.33
2022-10-01T04:23:35.530Z,13.34
2022-10-01T04:24:08.684Z,13.35
2022-10-01T04:24:41.924Z,13.35
2022-10-01T04:25:15.367Z,13.36
2022-10-01T04:25:49.247Z,13.36
2022-10-01T04:26:22.580Z,13.37
2022-10-01T04:26:55.863Z,13.38
2022-10-01T04:27:29.341Z,13.39
2022-10-01T04:28:06.387Z,13.39
2022-10-01T04:28:39.830Z,13.40
2022-10-01T04:29:12.981Z,13.41
2022-10-01T04:29:46.177Z,13.41
2022-10-01T04:30:19.405Z,13.41
2022-10-01T04:31:12.534Z,13.42
2022-10-01T04:31:46.012Z,13.41
2022-10-01T04:32:22.556Z,13.42
2022-10-01T04:32:55.779Z,13.42
2022-10-01T04:33:28.821Z,13.42
2022-10-01T04:34:02.164Z,13.42
2022-10-01T04:34:53.602Z,13.43
2022-10-01T04:35:27.247Z,13.42
2022-10-01T04:36:00.482Z,13.42
2022-10-01T04:36:33.851Z,13.42
2022-10-01T04:37:07.117Z,13.43
2022-10-01T04:37:40.369Z,13.43
2022-10-01T04:38:16.796Z,13.43
2022-10-01T04:38:59.279Z,13.43
2022-10-01T04:39:35.249Z,13.43
2022-10-01T04:40:10.959Z,13.43
2022-10-01T04:40:44.131Z,13.43
2022-10-01T04:41:17.368Z,13.43
2022-10-01T04:41:50.738Z,13.42
2022-10-01T04:42:23.909Z,13.42
2022-10-01T04:42:57.672Z,13.42
2022-10-01T04:43:31.188Z,13.42
2022-10-01T04:44:04.799Z,13.42
2022-10-01T04:44:38.163Z,13.42
2022-10-01T04:45:12.143Z,13.42
2022-10-01T04:45:45.400Z,13.42
2022-10-01T04:46:18.803Z,13.42
2022-10-01T04:46:51.995Z,13.42
2022-10-01T04:47:25.287Z,13.42
2022-10-01T04:47:58.874Z,13.42
2022-10-01T04:48:31.898Z,13.42
2022-10-01T04:49:05.362Z,13.41
2022-10-01T04:49:39.485Z,13.41
2022-10-01T04:50:12.966Z,13.40
2022-10-01T04:50:46.101Z,13.41
2022-10-01T04:51:19.306Z,13.40
2022-10-01T04:51:52.513Z,13.40
2022-10-01T04:52:25.831Z,13.39
2022-10-01T04:52:59.035Z,13.39
2022-10-01T04:53:32.685Z,13.39
2022-10-01T04:54:05.867Z,13.39
2022-10-01T04:54:39.046Z,13.39
2022-10-01T04:55:12.369Z,13.39
2022-10-01T04:55:46.602Z,13.38
2022-10-01T04:56:19.798Z,13.37
2022-10-01T04:56:53.225Z,13.37
2022-10-01T04:57:26.424Z,13.37
2022-10-01T04:57:59.660Z,13.37
2022-10-01T04:58:33.396Z,13.38
2022-10-01T04:59:06.571Z,13.38
2022-10-01T04:59:39.588Z,13.38
2022-10-01T05:00:19.339Z,13.39
2022-10-01T05:00:52.526Z,13.38
2022-10-01T05:01:25.708Z,13.38
2022-10-01T05:01:59.079Z,13.38
2022-10-01T05:02:34.677Z,13.38
2022-10-01T05:03:08.085Z,13.38
2022-10-01T05:03:41.530Z,13.38
2022-10-01T05:04:14.992Z,13.37
2022-10-01T05:04:48.389Z,13.37
2022-10-01T05:05:24.789Z,13.38
2022-10-01T05:05:58.055Z,13.38
2022-10-01T05:06:31.514Z,13.38
2022-10-01T05:07:04.810Z,13.38
2022-10-01T05:07:40.195Z,13.38
2022-10-01T05:08:13.441Z,13.38
2022-10-01T05:08:47.990Z,13.39
2022-10-01T05:09:21.249Z,13.38
2022-10-01T05:09:54.324Z,13.38
2022-10-01T05:10:27.852Z,13.38
2022-10-01T05:11:00.976Z,13.38
2022-10-01T05:11:35.141Z,13.38
2022-10-01T05:12:08.634Z,13.38
2022-10-01T05:12:42.307Z,13.39
2022-10-01T05:13:15.465Z,13.39
2022-10-01T05:13:48.756Z,13.40
2022-10-01T05:14:22.291Z,13.40
2022-10-01T05:14:56.971Z,13.40
2022-10-01T05:15:30.629Z,13.40
2022-10-01T05:16:03.974Z,13.40
2022-10-01T05:16:37.975Z,13.40
2022-10-01T05:17:11.280Z,13.40
2022-10-01T05:17:45.008Z,13.41
2022-10-01T05:18:18.156Z,13.41
2022-10-01T05:18:51.447Z,13.41
2022-10-01T05:19:27.950Z,13.42
2022-10-01T05:20:02.414Z,13.42
2022-10-01T05:20:35.587Z,13.42
2022-10-01T05:21:10.360Z,13.43
2022-10-01T05:21:44.187Z,13.43
2022-10-01T05:22:17.334Z,13.44
2022-10-01T05:22:51.071Z,13.43
2022-10-01T05:23:24.279Z,13.44
2022-10-01T05:23:57.477Z,13.45
2022-10-01T05:24:30.700Z,13.44
2022-10-01T05:25:04.407Z,13.45
2022-10-01T05:25:37.796Z,13.45
2022-10-01T05:26:11.141Z,13.45
2022-10-01T05:26:44.437Z,13.45
2022-10-01T05:27:17.945Z,13.46
2022-10-01T05:27:51.381Z,13.45
2022-10-01T05:28:24.784Z,13.46
2022-10-01T05:29:00.901Z,13.46
2022-10-01T05:29:33.952Z,13.46
2022-10-01T05:30:09.328Z,13.46
2022-10-01T05:30:43.422Z,13.47
2022-10-01T05:31:16.768Z,13.47
2022-10-01T05:31:50.555Z,13.47
2022-10-01T05:32:23.938Z,13.46
2022-10-01T05:32:59.231Z,13.47
2022-10-01T05:33:34.427Z,13.47
2022-10-01T05:34:07.604Z,13.47
2022-10-01T05:34:40.874Z,13.47
2022-10-01T05:35:14.156Z,13.47
2022-10-01T05:35:47.729Z,13.48
2022-10-01T05:36:20.926Z,13.47
2022-10-01T05:36:55.296Z,13.47
2022-10-01T05:37:28.499Z,13.48
2022-10-01T05:38:03.222Z,13.48
2022-10-01T05:38:37.631Z,13.48
2022-10-01T05:39:10.964Z,13.48
2022-10-01T05:39:44.348Z,13.48
2022-10-01T05:40:18.398Z,13.48
2022-10-01T05:40:51.853Z,13.48
2022-10-01T05:41:24.970Z,13.49
2022-10-01T05:42:03.933Z,13.50
2022-10-01T05:42:39.803Z,13.50
2022-10-01T05:43:13.934Z,13.50
2022-10-01T05:43:50.252Z,13.51
2022-10-01T05:44:24.394Z,13.52
2022-10-01T05:44:57.804Z,13.52
2022-10-01T05:45:32.583Z,13.53
2022-10-01T05:46:06.430Z,13.54
2022-10-01T05:46:40.058Z,13.54
2022-10-01T05:47:14.808Z,13.56
2022-10-01T05:47:49.564Z,13.56
2022-10-01T05:48:22.911Z,13.57
2022-10-01T05:48:56.425Z,13.59
2022-10-01T05:49:29.957Z,13.59
2022-10-01T05:50:03.733Z,13.60
2022-10-01T05:50:40.548Z,13.61
2022-10-01T05:51:16.794Z,13.62
2022-10-01T05:51:50.333Z,13.64
2022-10-01T05:52:23.794Z,13.64
2022-10-01T05:52:57.764Z,13.65
2022-10-01T05:53:31.387Z,13.66
2022-10-01T05:54:04.770Z,13.69
2022-10-01T05:54:38.603Z,13.71
2022-10-01T05:55:11.789Z,13.72
2022-10-01T05:55:45.279Z,13.74
2022-10-01T05:56:19.200Z,13.75
2022-10-01T05:56:53.843Z,13.77
2022-10-01T05:57:27.169Z,13.79
2022-10-01T05:58:10.878Z,13.80
2022-10-01T05:58:44.337Z,13.81
2022-10-01T05:59:17.906Z,13.82
2022-10-01T05:59:51.249Z,13.83
2022-10-01T06:00:28.450Z,13.83
2022-10-01T06:01:02.135Z,13.84
2022-10-01T06:01:35.999Z,13.85
2022-10-01T06:02:10.430Z,13.86
2022-10-01T06:02:44.351Z,13.87
2022-10-01T06:03:18.028Z,13.88
2022-10-01T06:03:54.991Z,13.88
2022-10-01T06:04:28.431Z,13.89
2022-10-01T06:05:02.798Z,13.89
2022-10-01T06:05:37.025Z,13.89
2022-10-01T06:06:11.125Z,13.89
2022-10-01T06:06:45.113Z,13.89
2022-10-01T06:07:18.640Z,13.89
2022-10-01T06:07:52.699Z,13.91
2022-10-01T06:08:29.080Z,13.91
2022-10-01T06:09:02.639Z,13.92
2022-10-01T06:09:36.089Z,13.93
2022-10-01T06:10:09.668Z,13.94
2022-10-01T06:10:43.096Z,13.94
2022-10-01T06:11:17.467Z,13.96
2022-10-01T06:11:50.874Z,13.97
2022-10-01T06:12:24.477Z,13.97
2022-10-01T06:13:02.171Z,13.97
2022-10-01T06:13:36.524Z,13.97
2022-10-01T06:14:09.841Z,13.97
2022-10-01T06:14:43.142Z,13.97
2022-10-01T06:15:18.096Z,13.98
2022-10-01T06:15:53.201Z,13.97
2022-10-01T06:16:26.302Z,13.99
2022-10-01T06:16:59.613Z,14.00
2022-10-01T06:17:33.531Z,14.02
2022-10-01T06:18:09.012Z,14.04
2022-10-01T06:18:42.820Z,14.05
2022-10-01T06:19:17.750Z,14.06
2022-10-01T06:19:51.832Z,14.08
2022-10-01T06:20:25.059Z,14.10
2022-10-01T06:21:00.473Z,14.11
2022-10-01T06:21:34.167Z,14.13
2022-10-01T06:22:08.044Z,14.13
2022-10-01T06:22:43.426Z,14.14
2022-10-01T06:23:16.610Z,14.15
2022-10-01T06:23:50.746Z,14.16
2022-10-01T06:24:23.975Z,14.18
2022-10-01T06:24:57.346Z,14.19
2022-10-01T06:25:31.303Z,14.21
2022-10-01T06:26:06.324Z,14.22
2022-10-01T06:26:39.664Z,14.23
2022-10-01T06:27:13.062Z,14.24
2022-10-01T06:27:53.760Z,14.26
2022-10-01T06:28:28.138Z,14.27
2022-10-01T06:29:03.173Z,14.28
2022-10-01T06:29:36.453Z,14.28
2022-10-01T06:30:10.655Z,14.29
2022-10-01T06:30:44.002Z,14.30
2022-10-01T06:31:18.485Z,14.32
2022-10-01T06:31:52.097Z,14.33
2022-10-01T06:32:25.450Z,14.35
2022-10-01T06:33:03.162Z,14.36
2022-10-01T06:33:37.231Z,14.37
2022-10-01T06:34:10.838Z,14.38
2022-10-01T06:34:43.891Z,14.39
2022-10-01T06:35:18.146Z,14.41
2022-10-01T06:35:52.377Z,14.43
2022-10-01T06:36:25.575Z,14.44
2022-10-01T06:36:58.700Z,14.44
2022-10-01T06:37:32.414Z,14.46
2022-10-01T06:38:06.597Z,14.46
2022-10-01T06:38:39.851Z,14.47
2022-10-01T06:39:12.959Z,14.47
2022-10-01T06:39:46.367Z,14.48
2022-10-01T06:40:19.739Z,14.49
2022-10-01T06:41:01.136Z,14.50
2022-10-01T06:41:34.930Z,14.51
2022-10-01T06:42:08.495Z,14.51
2022-10-01T06:42:48.278Z,14.53
2022-10-01T06:43:22.406Z,14.54
2022-10-01T06:43:55.711Z,14.55
2022-10-01T06:44:29.360Z,14.56
2022-10-01T06:45:02.733Z,14.58
2022-10-01T06:45:43.923Z,14.59
2022-10-01T06:46:17.423Z,14.60
2022-10-01T06:46:50.662Z,14.61
2022-10-01T06:47:24.755Z,14.62
2022-10-01T06:48:03.012Z,14.63
2022-10-01T06:48:36.908Z,14.63
2022-10-01T06:49:10.109Z,14.63
2022-10-01T06:49:47.314Z,14.64
2022-10-01T06:50:21.078Z,14.65
2022-10-01T06:50:56.313Z,14.66
2022-10-01T06:51:48.505Z,14.67
2022-10-01T06:52:40.898Z,14.69
2022-10-01T06:53:18.119Z,14.68
2022-10-01T06:53:52.297Z,14.68
2022-10-01T06:54:28.098Z,14.68
2022-10-01T06:55:02.570Z,14.68
2022-10-01T06:55:37.574Z,14.69
2022-10-01T06:56:10.878Z,14.70
2022-10-01T06:56:44.776Z,14.72
2022-10-01T06:57:18.172Z,14.72
2022-10-01T06:57:56.923Z,14.72
2022-10-01T06:58:30.532Z,14.73
2022-10-01T06:59:04.570Z,14.72
2022-10-01T06:59:37.993Z,14.72
2022-10-01T07:00:12.858Z,14.72
2022-10-01T07:00:47.923Z,14.72
2022-10-01T07:01:22.307Z,14.73
2022-10-01T07:01:56.346Z,14.73
2022-10-01T07:02:30.392Z,14.73
2022-10-01T07:03:11.398Z,14.74
2022-10-01T07:03:44.613Z,14.76
2022-10-01T07:04:17.857Z,14.77
2022-10-01T07:04:51.162Z,14.78
2022-10-01T07:05:25.724Z,14.79
2022-10-01T07:06:04.339Z,14.80
2022-10-01T07:06:37.944Z,14.82
2022-10-01T07:07:11.268Z,14.83
2022-10-01T07:07:48.793Z,14.84
2022-10-01T07:08:22.819Z,14.87
2022-10-01T07:08:56.837Z,14.88
2022-10-01T07:09:30.440Z,14.88
2022-10-01T07:10:06.715Z,14.90
2022-10-01T07:10:41.080Z,14.91
2022-10-01T07:11:14.209Z,14.91
2022-10-01T07:11:47.624Z,14.91
2022-10-01T07:12:20.857Z,14.92
2022-10-01T07:12:54.112Z,14.93
2022-10-01T07:13:27.237Z,14.93
2022-10-01T07:14:01.709Z,14.93
2022-10-01T07:14:34.979Z,14.94
2022-10-01T07:15:09.382Z,14.94
2022-10-01T07:15:43.094Z,14.94
2022-10-01T07:16:16.372Z,14.94
2022-10-01T07:16:49.577Z,14.96
2022-10-01T07:17:23.148Z,14.98
2022-10-01T07:17:56.455Z,14.98
2022-10-01T07:18:29.606Z,14.99
2022-10-01T07:19:03.002Z,14.99
2022-10-01T07:19:36.362Z,15.00
2022-10-01T07:20:09.951Z,15.00
2022-10-01T07:20:43.488Z,15.02
2022-10-01T07:21:16.797Z,15.05
2022-10-01T07:21:50.108Z,15.08
2022-10-01T07:22:24.569Z,15.12
2022-10-01T07:22:59.470Z,15.18
2022-10-01T07:23:32.667Z,15.22
2022-10-01T07:24:06.249Z,15.25
2022-10-01T07:24:39.856Z,15.28
2022-10-01T07:25:14.010Z,15.31
2022-10-01T07:25:47.426Z,15.34
2022-10-01T07:26:20.572Z,15.36
2022-10-01T07:26:56.146Z,15.39
2022-10-01T07:27:29.601Z,15.42
2022-10-01T07:28:05.099Z,15.44
2022-10-01T07:28:39.201Z,15.47
2022-10-01T07:29:12.341Z,15.47
2022-10-01T07:29:45.817Z,15.47
2022-10-01T07:30:19.106Z,15.48
2022-10-01T07:31:07.062Z,15.50
2022-10-01T07:31:40.357Z,15.51
2022-10-01T07:32:13.578Z,15.51
2022-10-01T07:32:46.880Z,15.52
2022-10-01T07:33:21.137Z,15.53
2022-10-01T07:33:58.150Z,15.54
2022-10-01T07:34:31.500Z,15.55
2022-10-01T07:35:06.195Z,15.57
2022-10-01T07:35:39.507Z,15.58
2022-10-01T07:36:13.791Z,15.59
2022-10-01T07:36:49.438Z,15.61
2022-10-01T07:37:23.314Z,15.62
2022-10-01T07:37:56.715Z,15.64
2022-10-01T07:38:30.598Z,15.65
2022-10-01T07:39:04.091Z,15.68
2022-10-01T07:39:37.619Z,15.71
2022-10-01T07:40:11.077Z,15.75
2022-10-01T07:40:44.303Z,15.78
2022-10-01T07:41:18.366Z,15.82
2022-10-01T07:41:52.170Z,15.87
2022-10-01T07:42:26.884Z,15.90
2022-10-01T07:43:00.094Z,15.94
2022-10-01T07:43:35.056Z,15.98
2022-10-01T07:44:08.360Z,16.00